createdAt,value
2019-01-31T00:00:42.772Z,47.50
2019-01-31T00:04:05.219Z,47.07
2019-01-31T00:07:07.146Z,39.97
2019-01-31T00:10:01.452Z,35.90
2019-01-31T00:13:29.545Z,36.60
2019-01-31T00:16:46.489Z,37.57
2019-01-31T00:19:33.479Z,35.73
2019-01-31T00:22:58.919Z,37.20
2019-01-31T00:26:07.014Z,37.27
2019-01-31T00:29:13.288Z,36.57
2019-01-31T00:32:26.759Z,36.37
2019-01-31T00:35:27.093Z,38.37
2019-01-31T00:38:37.866Z,40.73
2019-01-31T00:41:36.601Z,39.87
2019-01-31T00:44:49.006Z,41.87
2019-01-31T00:47:43.632Z,36.67
2019-01-31T00:50:44.217Z,37.33
2019-01-31T00:53:55.092Z,37.23
2019-01-31T00:56:39.936Z,35.63
2019-01-31T00:59:59.613Z,35.30
2019-01-31T01:02:59.369Z,34.90
2019-01-31T01:06:32.390Z,41.57
2019-01-31T01:09:38.302Z,34.73
2019-01-31T01:12:49.143Z,37.20
2019-01-31T01:15:41.473Z,34.07
2019-01-31T01:19:02.323Z,32.73
2019-01-31T01:22:09.860Z,34.10
2019-01-31T01:25:15.278Z,37.73
2019-01-31T01:27:59.826Z,37.67
2019-01-31T01:31:13.209Z,37.20
2019-01-31T01:34:22.845Z,37.00
2019-01-31T01:37:16.142Z,36.33
2019-01-31T01:40:17.428Z,38.67
2019-01-31T01:43:22.711Z,33.97
2019-01-31T01:46:34.026Z,34.43
2019-01-31T01:49:43.517Z,35.87
2019-01-31T01:52:37.232Z,35.07
2019-01-31T01:55:40.991Z,35.83
2019-01-31T01:58:44.257Z,37.70
2019-01-31T02:02:02.873Z,37.37
2019-01-31T02:05:02.658Z,37.33
2019-01-31T02:08:12.249Z,34.43
2019-01-31T02:11:32.214Z,35.13
2019-01-31T02:14:30.370Z,36.20
2019-01-31T02:17:17.716Z,34.37
2019-01-31T02:20:48.887Z,32.67
2019-01-31T02:23:34.796Z,33.73
2019-01-31T02:26:56.603Z,32.83
2019-01-31T02:29:57.934Z,37.53
2019-01-31T02:33:29.427Z,32.00
2019-01-31T02:36:51.023Z,32.90
2019-01-31T02:39:49.695Z,32.90
2019-01-31T02:43:01.673Z,33.90
2019-01-31T02:46:28.968Z,34.67
2019-01-31T02:49:26.156Z,33.03
2019-01-31T02:52:05.757Z,34.33
2019-01-31T02:55:22.036Z,33.00
2019-01-31T02:58:12.046Z,31.47
2019-01-31T03:01:12.592Z,32.87
2019-01-31T03:04:07.779Z,37.47
2019-01-31T03:07:27.488Z,36.43
2019-01-31T03:10:28.774Z,39.53
2019-01-31T03:13:32.636Z,38.70
2019-01-31T03:17:00.992Z,36.40
2019-01-31T03:20:11.312Z,32.80
2019-01-31T03:23:27.080Z,32.17
2019-01-31T03:26:06.067Z,34.13
2019-01-31T03:29:30.767Z,33.10
2019-01-31T03:32:28.983Z,32.83
2019-01-31T03:35:31.420Z,33.33
2019-01-31T03:38:31.319Z,37.50
2019-01-31T03:41:41.566Z,32.90
2019-01-31T03:44:47.703Z,33.13
2019-01-31T03:47:45.477Z,35.23
2019-01-31T03:50:25.173Z,35.47
2019-01-31T03:53:43.339Z,33.97
2019-01-31T03:56:48.838Z,33.67
2019-01-31T03:59:51.549Z,34.50
2019-01-31T04:03:07.797Z,34.93
2019-01-31T04:06:01.511Z,39.30
2019-01-31T04:08:33.744Z,36.47
2019-01-31T04:11:05.736Z,35.20
2019-01-31T04:13:37.838Z,35.57
2019-01-31T04:16:09.843Z,37.27
2019-01-31T04:18:41.909Z,37.30
2019-01-31T04:21:14.049Z,46.23
2019-01-31T04:23:49.074Z,45.47
2019-01-31T04:26:21.169Z,42.40
2019-01-31T04:28:53.244Z,44.07
2019-01-31T04:31:26.099Z,40.10
2019-01-31T04:33:58.219Z,41.37
2019-01-31T04:36:30.252Z,39.93
2019-01-31T04:39:04.516Z,41.13
2019-01-31T04:41:38.490Z,37.20
2019-01-31T04:44:10.556Z,39.07
2019-01-31T04:46:42.727Z,47.07
2019-01-31T04:49:15.953Z,49.57
2019-01-31T04:51:48.011Z,48.07
2019-01-31T04:54:20.341Z,50.00
2019-01-31T04:56:52.486Z,51.50
2019-01-31T04:59:24.510Z,50.63
2019-01-31T05:01:56.648Z,48.40
2019-01-31T05:04:28.754Z,47.37
2019-01-31T05:07:05.231Z,48.67
2019-01-31T05:09:37.338Z,49.53
2019-01-31T05:12:09.651Z,67.83
2019-01-31T05:14:44.498Z,61.93
2019-01-31T05:17:23.178Z,47.57
2019-01-31T05:19:56.750Z,47.67
2019-01-31T05:22:28.955Z,52.17
2019-01-31T05:25:01.826Z,50.13
2019-01-31T05:27:34.082Z,48.90
2019-01-31T05:30:09.407Z,46.27
2019-01-31T05:32:41.644Z,49.03
2019-01-31T05:35:13.722Z,48.03
2019-01-31T05:37:45.797Z,57.40
2019-01-31T05:40:20.798Z,75.53
2019-01-31T05:42:53.457Z,76.13
2019-01-31T05:45:25.918Z,74.40
2019-01-31T05:47:58.616Z,78.97
2019-01-31T05:50:32.359Z,74.30
2019-01-31T05:53:07.207Z,77.77
2019-01-31T05:55:39.258Z,87.27
2019-01-31T05:58:11.711Z,93.07
2019-01-31T06:00:43.858Z,81.67
2019-01-31T06:03:16.073Z,81.27
2019-01-31T06:05:50.068Z,69.43
2019-01-31T06:08:22.162Z,71.30
2019-01-31T06:11:06.845Z,58.13
2019-01-31T06:13:29.962Z,49.63
2019-01-31T06:16:02.237Z,47.17
2019-01-31T06:18:34.350Z,53.97
2019-01-31T06:21:06.566Z,53.33
2019-01-31T06:23:38.671Z,52.73
2019-01-31T06:26:10.729Z,55.70
2019-01-31T06:28:45.407Z,58.50
2019-01-31T06:31:17.519Z,63.43
2019-01-31T06:33:49.792Z,57.20
2019-01-31T06:36:21.994Z,52.77
2019-01-31T06:38:54.202Z,54.40
2019-01-31T06:41:26.396Z,59.73
2019-01-31T06:43:58.413Z,66.47
2019-01-31T06:46:30.503Z,72.70
2019-01-31T06:49:02.577Z,78.77
2019-01-31T06:51:34.702Z,74.07
2019-01-31T06:54:07.767Z,75.30
2019-01-31T06:56:39.975Z,75.47
2019-01-31T06:59:14.636Z,74.00
2019-01-31T07:01:47.048Z,77.90
2019-01-31T07:04:19.343Z,77.43
2019-01-31T07:06:51.557Z,71.37
2019-01-31T07:09:23.669Z,68.53
2019-01-31T07:11:56.163Z,70.90
2019-01-31T07:14:28.302Z,71.73
2019-01-31T07:17:00.418Z,80.77
2019-01-31T07:19:32.678Z,75.90
2019-01-31T07:22:05.194Z,65.67
2019-01-31T07:24:37.494Z,58.37
2019-01-31T07:27:12.886Z,53.90
2019-01-31T07:29:45.172Z,49.63
2019-01-31T07:32:17.462Z,50.43
2019-01-31T07:34:49.667Z,54.90
2019-01-31T07:37:21.799Z,54.87
2019-01-31T07:39:53.838Z,53.10
2019-01-31T07:42:25.939Z,54.10
2019-01-31T07:44:58.040Z,52.83
2019-01-31T07:47:30.220Z,53.47
2019-01-31T07:50:02.263Z,53.13
2019-01-31T07:52:34.440Z,57.63
2019-01-31T07:55:07.295Z,63.70
2019-01-31T07:57:39.456Z,70.30
2019-01-31T08:00:13.482Z,75.23
2019-01-31T08:02:45.531Z,65.20
2019-01-31T08:05:19.225Z,49.90
2019-01-31T08:07:53.425Z,51.73
2019-01-31T08:10:28.232Z,50.07
2019-01-31T08:13:00.254Z,47.70
2019-01-31T08:15:35.400Z,50.90
2019-01-31T08:18:07.539Z,50.77
2019-01-31T08:20:39.668Z,49.57
2019-01-31T08:23:11.748Z,54.63
2019-01-31T08:25:43.828Z,55.43
2019-01-31T08:28:15.925Z,49.30
2019-01-31T08:30:48.994Z,51.90
2019-01-31T08:33:21.083Z,51.73
2019-01-31T08:35:53.231Z,59.07
2019-01-31T08:38:25.408Z,57.33
2019-01-31T08:40:57.481Z,59.37
2019-01-31T08:43:30.701Z,84.77
2019-01-31T08:46:02.814Z,73.60
2019-01-31T08:48:34.887Z,57.23
2019-01-31T08:51:06.949Z,64.10
2019-01-31T08:53:39.026Z,57.97
2019-01-31T08:56:11.166Z,55.97
2019-01-31T08:58:43.341Z,58.30
2019-01-31T09:01:15.432Z,62.10
2019-01-31T09:03:47.412Z,54.87
2019-01-31T09:06:19.550Z,58.33
2019-01-31T09:08:51.696Z,56.50
2019-01-31T09:11:23.811Z,57.23
2019-01-31T09:13:55.914Z,55.57
2019-01-31T09:16:28.045Z,57.47
2019-01-31T09:19:00.177Z,56.25
2019-01-31T09:22:28.600Z,53.00
2019-01-31T09:25:37.406Z,54.83
2019-01-31T09:28:44.228Z,57.60
2019-01-31T09:32:09.317Z,53.90
2019-01-31T09:34:56.429Z,52.97
2019-01-31T09:38:05.269Z,52.65
2019-01-31T09:41:14.929Z,53.73
2019-01-31T09:44:15.844Z,54.93
2019-01-31T09:47:36.318Z,48.17
2019-01-31T09:50:52.370Z,51.85
2019-01-31T09:54:11.385Z,50.70
2019-01-31T09:57:11.345Z,51.00
2019-01-31T10:00:27.719Z,50.60
2019-01-31T10:03:41.977Z,48.98
2019-01-31T10:07:07.192Z,49.77
2019-01-31T10:09:58.046Z,48.40
2019-01-31T10:12:51.671Z,46.15
2019-01-31T10:15:37.856Z,43.75
2019-01-31T10:18:30.985Z,50.78
2019-01-31T10:21:24.825Z,46.35
2019-01-31T10:24:35.750Z,49.10
2019-01-31T10:27:34.802Z,49.23
2019-01-31T10:30:46.437Z,49.25
2019-01-31T10:34:08.875Z,57.38
2019-01-31T10:36:50.682Z,55.63
2019-01-31T10:39:57.313Z,50.52
2019-01-31T10:43:31.700Z,50.60
2019-01-31T10:46:33.233Z,49.33
2019-01-31T10:49:58.372Z,48.33
2019-01-31T10:53:12.414Z,51.55
2019-01-31T10:56:34.198Z,51.00
2019-01-31T10:59:43.273Z,51.37
2019-01-31T11:03:02.415Z,52.48
2019-01-31T11:06:00.438Z,53.73
2019-01-31T11:08:47.653Z,54.90
2019-01-31T11:12:00.030Z,52.80
2019-01-31T11:15:08.951Z,55.48
2019-01-31T11:18:19.297Z,55.25
2019-01-31T11:21:23.988Z,50.40
2019-01-31T11:24:18.454Z,48.10
2019-01-31T11:27:11.687Z,46.55
2019-01-31T11:30:39.070Z,45.83
2019-01-31T11:33:31.913Z,45.35
2019-01-31T11:36:45.863Z,45.67
2019-01-31T11:39:35.765Z,43.87
2019-01-31T11:42:33.540Z,47.08
2019-01-31T11:45:50.246Z,44.60
2019-01-31T11:49:03.913Z,44.77
2019-01-31T11:52:30.532Z,41.58
2019-01-31T11:55:24.396Z,41.90
2019-01-31T11:58:32.635Z,45.78
2019-01-31T12:01:05.989Z,43.65
2019-01-31T12:03:38.934Z,42.83
2019-01-31T12:06:14.522Z,38.15
2019-01-31T12:08:46.522Z,37.95
2019-01-31T12:11:18.617Z,39.20
2019-01-31T12:13:50.707Z,42.08
2019-01-31T12:16:22.803Z,41.53
2019-01-31T12:18:55.094Z,36.35
2019-01-31T12:21:27.335Z,36.03
2019-01-31T12:23:59.415Z,35.58
2019-01-31T12:26:31.437Z,33.02
2019-01-31T12:29:03.447Z,32.85
2019-01-31T12:31:35.539Z,29.02
2019-01-31T12:34:07.599Z,29.65
2019-01-31T12:36:39.712Z,30.50
2019-01-31T12:39:12.088Z,36.50
2019-01-31T12:41:44.330Z,32.65
2019-01-31T12:44:16.368Z,32.70
2019-01-31T12:46:48.491Z,31.55
2019-01-31T12:49:20.548Z,31.75
2019-01-31T12:51:52.577Z,29.32
2019-01-31T12:54:24.626Z,28.27
2019-01-31T12:56:56.819Z,30.50
2019-01-31T12:59:28.816Z,35.58
2019-01-31T13:02:00.861Z,38.83
2019-01-31T13:04:32.976Z,33.10
2019-01-31T13:07:05.241Z,31.90
2019-01-31T13:09:37.348Z,30.92
2019-01-31T13:12:09.434Z,36.53
2019-01-31T13:14:41.528Z,40.67
2019-01-31T13:17:13.632Z,35.15
2019-01-31T13:19:45.635Z,36.20
2019-01-31T13:22:17.885Z,29.82
2019-01-31T13:24:49.943Z,32.95
2019-01-31T13:27:22.053Z,28.65
2019-01-31T13:29:54.062Z,26.00
2019-01-31T13:32:26.728Z,31.65
2019-01-31T13:34:59.699Z,39.00
2019-01-31T13:37:31.717Z,39.60
2019-01-31T13:40:04.175Z,45.67
2019-01-31T13:42:36.254Z,43.48
2019-01-31T13:45:10.046Z,54.63
2019-01-31T13:47:42.457Z,52.67
2019-01-31T13:50:15.590Z,54.27
2019-01-31T13:52:47.693Z,57.38
2019-01-31T13:55:25.085Z,50.80
2019-01-31T13:57:57.250Z,50.48
2019-01-31T14:00:29.335Z,54.87
2019-01-31T14:03:01.434Z,51.63
2019-01-31T14:05:33.752Z,56.88
2019-01-31T14:08:06.911Z,52.03
2019-01-31T14:10:39.300Z,51.83
2019-01-31T14:13:11.690Z,49.03
2019-01-31T14:15:44.031Z,49.00
2019-01-31T14:18:16.238Z,54.37
2019-01-31T14:20:48.961Z,61.40
2019-01-31T14:23:21.315Z,58.33
2019-01-31T14:25:53.325Z,60.12
2019-01-31T14:28:26.467Z,52.73
2019-01-31T14:30:58.559Z,57.67
2019-01-31T14:33:31.331Z,56.63
2019-01-31T14:36:03.958Z,57.15
2019-01-31T14:38:36.215Z,49.43
2019-01-31T14:41:08.560Z,49.77
2019-01-31T14:43:40.678Z,55.50
2019-01-31T14:46:13.782Z,60.10
2019-01-31T14:48:45.901Z,57.53
2019-01-31T14:51:18.349Z,56.60
2019-01-31T14:53:50.542Z,61.30
2019-01-31T14:56:22.657Z,69.00
2019-01-31T14:58:54.802Z,65.37
2019-01-31T15:01:26.923Z,57.67
2019-01-31T15:03:59.161Z,54.65
2019-01-31T15:06:31.315Z,55.77
2019-01-31T15:09:03.590Z,56.77
2019-01-31T15:11:37.373Z,64.50
2019-01-31T15:14:09.489Z,64.93
2019-01-31T15:16:41.564Z,72.42
2019-01-31T15:19:13.603Z,71.63
2019-01-31T15:21:45.909Z,71.73
2019-01-31T15:24:17.910Z,76.47
2019-01-31T15:26:50.080Z,76.37
2019-01-31T15:29:22.209Z,74.37
2019-01-31T15:31:54.301Z,95.03
2019-01-31T15:34:26.530Z,111.37
2019-01-31T15:36:58.746Z,111.70
2019-01-31T15:39:32.131Z,127.67
2019-01-31T15:42:04.466Z,120.80
2019-01-31T15:44:43.407Z,108.87
2019-01-31T15:47:11.233Z,152.73
2019-01-31T15:49:43.763Z,124.60
2019-01-31T15:52:15.916Z,150.13
2019-01-31T15:54:48.725Z,197.57
2019-01-31T15:57:20.971Z,190.33
2019-01-31T15:59:53.691Z,198.87
2019-01-31T16:02:26.036Z,204.10
2019-01-31T16:04:58.540Z,166.17
2019-01-31T16:07:32.663Z,185.83
2019-01-31T16:10:04.870Z,200.33
2019-01-31T16:12:38.969Z,189.97
2019-01-31T16:15:22.925Z,210.47
2019-01-31T16:17:58.754Z,197.67
2019-01-31T16:24:40.424Z,247.60
2019-01-31T16:27:16.011Z,246.40
2019-01-31T16:30:31.909Z,267.67
2019-01-31T16:40:12.765Z,316.40
2019-01-31T16:42:53.220Z,367.40
2019-01-31T16:55:46.718Z,374.77
2019-01-31T16:58:19.658Z,382.07
2019-01-31T17:01:11.242Z,363.30
2019-01-31T17:07:08.703Z,372.77
2019-01-31T17:09:55.480Z,390.73
2019-01-31T17:12:31.096Z,390.43
2019-01-31T17:15:17.582Z,400.53
2019-01-31T17:17:45.732Z,395.17
2019-01-31T17:21:11.201Z,392.37
2019-01-31T17:28:04.172Z,494.53
2019-01-31T17:31:11.723Z,557.60
2019-01-31T17:34:42.443Z,476.37
2019-01-31T17:37:49.897Z,446.00
2019-01-31T17:41:11.086Z,377.37
2019-01-31T17:44:01.528Z,316.17
2019-01-31T17:47:03.901Z,302.50
2019-01-31T17:49:48.594Z,343.47
2019-01-31T17:59:59.631Z,357.97
2019-01-31T18:03:01.612Z,377.97
2019-01-31T18:05:35.387Z,363.53
2019-01-31T18:08:12.149Z,349.83
2019-01-31T18:10:58.413Z,327.43
2019-01-31T18:18:25.209Z,360.87
2019-01-31T18:21:19.596Z,318.17
2019-01-31T18:24:10.453Z,292.60
2019-01-31T18:26:50.842Z,269.13
2019-01-31T18:29:25.141Z,279.10
2019-01-31T18:32:05.907Z,222.13
2019-01-31T18:34:43.857Z,212.00
2019-01-31T18:41:48.306Z,163.37
2019-01-31T18:44:53.231Z,149.77
2019-01-31T19:00:58.562Z,138.97
2019-01-31T19:04:24.283Z,151.83
2019-01-31T19:10:04.389Z,140.80
2019-01-31T19:12:39.565Z,154.30
2019-01-31T19:15:12.444Z,145.07
2019-01-31T19:17:47.037Z,136.63
2019-01-31T19:20:25.916Z,140.77
2019-01-31T19:23:04.354Z,116.43
2019-01-31T19:25:39.590Z,109.73
2019-01-31T19:28:14.660Z,109.93
2019-01-31T19:30:48.022Z,129.00
2019-01-31T19:33:23.381Z,119.93
2019-01-31T19:35:55.947Z,137.30
2019-01-31T19:38:28.296Z,126.00
2019-01-31T19:41:00.841Z,120.83
2019-01-31T19:43:33.302Z,110.73
2019-01-31T19:46:15.857Z,95.60
2019-01-31T19:48:39.599Z,91.83
2019-01-31T19:51:12.111Z,103.37
2019-01-31T19:53:44.518Z,98.53
2019-01-31T19:56:18.229Z,104.90
2019-01-31T19:58:50.367Z,114.00
2019-01-31T20:01:22.590Z,113.80
2019-01-31T20:03:54.785Z,141.10
2019-01-31T20:06:26.946Z,139.30
2019-01-31T20:09:01.776Z,135.43
2019-01-31T20:11:44.629Z,142.03
2019-01-31T20:14:16.813Z,146.80
2019-01-31T20:16:48.979Z,160.37
2019-01-31T20:19:21.706Z,158.47
2019-01-31T20:21:53.868Z,153.70
2019-01-31T20:24:26.026Z,149.90
2019-01-31T20:26:58.142Z,147.33
2019-01-31T20:29:30.172Z,133.50
2019-01-31T20:32:02.291Z,130.07
2019-01-31T20:34:34.616Z,129.80
2019-01-31T20:37:06.788Z,131.87
2019-01-31T20:39:38.915Z,113.37
2019-01-31T20:42:11.100Z,113.97
2019-01-31T20:44:43.300Z,114.10
2019-01-31T20:47:16.001Z,111.47
2019-01-31T20:49:48.257Z,110.20
2019-01-31T20:52:20.320Z,122.07
2019-01-31T20:54:52.522Z,111.10
2019-01-31T20:57:24.632Z,114.63
2019-01-31T20:59:56.796Z,112.77
2019-01-31T21:02:28.855Z,111.77
2019-01-31T21:05:01.022Z,111.17
2019-01-31T21:07:33.521Z,112.43
2019-01-31T21:10:06.260Z,105.37
2019-01-31T21:12:38.384Z,100.80
2019-01-31T21:15:13.147Z,92.77
2019-01-31T21:17:45.315Z,87.63
2019-01-31T21:20:18.356Z,91.67
2019-01-31T21:22:50.526Z,100.90
2019-01-31T21:25:22.603Z,91.83
2019-01-31T21:27:54.656Z,91.67
2019-01-31T21:30:31.985Z,88.30
2019-01-31T21:33:04.050Z,85.10
2019-01-31T21:35:36.062Z,92.93
2019-01-31T21:38:08.175Z,93.97
2019-01-31T21:40:40.730Z,100.03
2019-01-31T21:43:12.795Z,101.30
2019-01-31T21:45:44.910Z,113.97
2019-01-31T21:48:17.007Z,110.93
2019-01-31T21:50:49.093Z,113.83
2019-01-31T21:53:21.262Z,115.83
2019-01-31T21:55:53.454Z,110.33
2019-01-31T21:58:25.572Z,108.70
2019-01-31T22:00:58.670Z,99.50
2019-01-31T22:03:30.728Z,98.83
2019-01-31T22:06:02.750Z,98.83
2019-01-31T22:08:34.810Z,107.33
2019-01-31T22:11:06.919Z,113.00
2019-01-31T22:13:38.960Z,108.57
2019-01-31T22:16:11.116Z,105.73
2019-01-31T22:18:43.168Z,97.67
2019-01-31T22:21:16.185Z,97.77
2019-01-31T22:23:48.383Z,90.03
2019-01-31T22:26:20.496Z,95.77
2019-01-31T22:28:52.562Z,109.53
2019-01-31T22:31:24.636Z,104.40
2019-01-31T22:33:56.848Z,98.70
2019-01-31T22:36:28.991Z,93.57
2019-01-31T22:39:01.001Z,88.10
2019-01-31T22:41:34.673Z,82.77
2019-01-31T22:44:06.778Z,96.60
2019-01-31T22:46:38.792Z,93.77
2019-01-31T22:49:10.798Z,93.20
2019-01-31T22:51:42.832Z,88.97
2019-01-31T22:54:15.910Z,95.20
2019-01-31T22:56:47.911Z,98.53
2019-01-31T22:59:19.960Z,90.13
2019-01-31T23:01:58.879Z,89.70
2019-01-31T23:04:31.018Z,82.00
2019-01-31T23:07:03.025Z,83.40
2019-01-31T23:09:35.165Z,82.23
2019-01-31T23:12:07.229Z,84.23
2019-01-31T23:14:39.267Z,81.10
2019-01-31T23:17:11.332Z,80.53
2019-01-31T23:19:43.330Z,80.17
2019-01-31T23:22:15.413Z,83.00
2019-01-31T23:24:47.449Z,77.13
2019-01-31T23:27:19.516Z,79.37
2019-01-31T23:29:51.754Z,77.50
2019-01-31T23:32:23.886Z,78.63
2019-01-31T23:34:56.027Z,82.63
2019-01-31T23:37:28.076Z,76.30
2019-01-31T23:40:00.308Z,75.93
2019-01-31T23:42:32.395Z,78.30
2019-01-31T23:45:05.792Z,77.17
2019-01-31T23:47:47.622Z,73.07
2019-01-31T23:50:11.647Z,67.53
2019-01-31T23:52:43.714Z,67.00
2019-01-31T23:55:15.752Z,69.97
2019-01-31T23:57:48.881Z,70.57
